Time;durP1;ratioP1;P1;durP2;ratioP2;P2;SDS_P1;SDS_P2;PMS_P1;PMS_P2;Temp;Humidity;BMP_temperature;BMP_pressure;BME280_temperature;BME280_humidity;BME280_pressure;Samples;Min_cycle;Max_cycle;Signal;HPM_P1;HPM_P2
2022/04/11 00:02:01;;;;;;;;;9.00;7.33;;;;;;;;5078956;28;45407;-71
2022/04/11 00:04:27;;;;;;;;;15.00;11.00;;;;;;;;5078624;28;45288;-71
2022/04/11 00:06:52;;;;;;;;;13.67;11.00;;;;;;;;5077275;28;47217;-71
2022/04/11 00:09:18;;;;;;;;;13.33;12.67;;;;;;;;5077409;28;45394;-71
2022/04/11 00:11:43;;;;;;;;;17.67;12.67;;;;;;;;5078725;28;45298;-71
2022/04/11 00:14:09;;;;;;;;;16.00;11.00;;;;;;;;5078085;28;45455;-71
2022/04/11 00:16:34;;;;;;;;;16.67;12.67;;;;;;;;5078122;28;45374;-72
2022/04/11 00:18:59;;;;;;;;;11.67;11.00;;;;;;;;5077857;28;45248;-71
2022/04/11 00:21:24;;;;;;;;;11.67;11.00;;;;;;;;5078940;28;45315;-72
2022/04/11 00:23:49;;;;;;;;;14.33;10.00;;;;;;;;5078476;28;45345;-72
2022/04/11 00:26:15;;;;;;;;;13.00;10.00;;;;;;;;5078990;28;45483;-72
2022/04/11 00:28:40;;;;;;;;;14.33;10.33;;;;;;;;5078883;28;45375;-72
2022/04/11 00:31:05;;;;;;;;;13.00;12.00;;;;;;;;5079218;28;45395;-71
2022/04/11 00:33:30;;;;;;;;;13.33;11.33;;;;;;;;5079526;27;45465;-71
2022/04/11 00:35:56;;;;;;;;;11.00;10.33;;;;;;;;5092675;27;45589;-72
2022/04/11 00:38:21;;;;;;;;;11.33;11.33;;;;;;;;5093796;27;45417;-72
2022/04/11 00:40:46;;;;;;;;;14.00;11.67;;;;;;;;5098010;27;46026;-72
2022/04/11 00:43:31;;;;;;;;;15.67;12.33;;;;;;;;5095597;27;45465;-72
2022/04/11 00:45:56;;;;;;;;;16.33;11.00;;;;;;;;5093443;27;46668;-72
2022/04/11 00:48:21;;;;;;;;;10.67;10.67;;;;;;;;5088091;27;45454;-72
2022/04/11 00:50:47;;;;;;;;;11.67;11.67;;;;;;;;5096935;27;45403;-72
2022/04/11 00:53:12;;;;;;;;;15.00;14.00;;;;;;;;5095719;27;45507;-72
2022/04/11 00:55:37;;;;;;;;;15.67;12.00;;;;;;;;5090843;27;45428;-72
2022/04/11 00:58:04;;;;;;;;;16.33;9.67;;;;;;;;5098668;27;45364;-72
2022/04/11 01:00:30;;;;;;;;;14.00;11.67;;;;;;;;5091134;27;45310;-72
2022/04/11 01:02:55;;;;;;;;;11.67;7.33;;;;;;;;5093152;27;45246;-72
2022/04/11 01:05:20;;;;;;;;;13.33;11.67;;;;;;;;5091087;27;45533;-72
2022/04/11 01:07:46;;;;;;;;;15.67;12.00;;;;;;;;5098038;27;45439;-72
2022/04/11 01:10:11;;;;;;;;;14.00;12.67;;;;;;;;5098855;27;45411;-72
2022/04/11 01:12:36;;;;;;;;;13.33;12.00;;;;;;;;5098735;27;45402;-72
2022/04/11 01:15:02;;;;;;;;;12.33;10.33;;;;;;;;5089695;27;45272;-72
2022/04/11 01:17:31;;;;;;;;;13.67;12.33;;;;;;;;5086328;27;45415;-72
2022/04/11 01:19:56;;;;;;;;;13.00;9.33;;;;;;;;5098460;27;45302;-72
2022/04/11 01:22:21;;;;;;;;;14.33;13.00;;;;;;;;5098593;27;45228;-72
2022/04/11 01:24:47;;;;;;;;;13.33;12.00;;;;;;;;5098030;27;45484;-72
2022/04/11 01:27:12;;;;;;;;;12.00;12.00;;;;;;;;5098561;27;45315;-72
2022/04/11 01:29:37;;;;;;;;;18.00;10.67;;;;;;;;5081995;27;45369;-72
2022/04/11 01:32:04;;;;;;;;;13.67;12.33;;;;;;;;5084555;27;45564;-72
2022/04/11 01:34:29;;;;;;;;;13.67;11.67;;;;;;;;5098090;27;46442;-72
2022/04/11 01:36:54;;;;;;;;;14.33;11.67;;;;;;;;5098080;27;45348;-72
2022/04/11 01:39:19;;;;;;;;;14.33;12.00;;;;;;;;5097876;27;45435;-72
2022/04/11 01:41:45;;;;;;;;;13.00;11.33;;;;;;;;5097365;27;45284;-72
2022/04/11 01:44:10;;;;;;;;;12.00;10.00;;;;;;;;5096221;27;46910;-72
2022/04/11 01:46:35;;;;;;;;;14.33;10.33;;;;;;;;5077574;28;45233;-72
2022/04/11 01:49:00;;;;;;;;;18.33;13.67;;;;;;;;5091817;27;45411;-72
2022/04/11 01:51:26;;;;;;;;;18.00;14.00;;;;;;;;5096635;27;45373;-72
2022/04/11 01:53:51;;;;;;;;;19.00;15.33;;;;;;;;5097081;27;45466;-72
2022/04/11 01:56:16;;;;;;;;;13.33;12.00;;;;;;;;5089012;27;45388;-72
2022/04/11 01:58:41;;;;;;;;;17.67;16.00;;;;;;;;5098189;27;45389;-72
2022/04/11 02:01:07;;;;;;;;;17.67;14.33;;;;;;;;5097759;27;45310;-72
2022/04/11 02:03:32;;;;;;;;;14.00;11.00;;;;;;;;5097679;27;46453;-72
2022/04/11 02:05:57;;;;;;;;;16.00;12.67;;;;;;;;5097755;27;45347;-72
2022/04/11 02:08:22;;;;;;;;;11.00;11.00;;;;;;;;5097801;27;45386;-72
2022/04/11 02:10:48;;;;;;;;;16.00;13.33;;;;;;;;5091225;27;45545;-72
2022/04/11 02:13:13;;;;;;;;;12.00;12.00;;;;;;;;5094248;27;46008;-72
2022/04/11 02:15:39;;;;;;;;;14.00;11.33;;;;;;;;5097804;27;45326;-72
2022/04/11 02:18:04;;;;;;;;;11.67;11.33;;;;;;;;5097614;27;45452;-72
2022/04/11 02:20:30;;;;;;;;;16.33;13.00;;;;;;;;5097438;27;45456;-72
2022/04/11 02:22:59;;;;;;;;;11.33;10.00;;;;;;;;5067048;28;46362;-74
2022/04/11 02:25:26;;;;;;;;;12.00;11.33;;;;;;;;5076831;27;45250;-72
2022/04/11 02:27:51;;;;;;;;;15.67;10.00;;;;;;;;5082882;27;45517;-72
2022/04/11 02:30:18;;;;;;;;;13.67;13.33;;;;;;;;5088926;27;45781;-72
2022/04/11 02:32:43;;;;;;;;;13.00;12.67;;;;;;;;5089730;27;46985;-72
2022/04/11 02:35:08;;;;;;;;;12.33;11.67;;;;;;;;5097282;27;45296;-72
2022/04/11 02:37:34;;;;;;;;;6.33;1.00;;;;;;;;5091493;27;45562;-72
2022/04/11 02:39:59;;;;;;;;;13.33;10.33;;;;;;;;5097510;27;45264;-72
2022/04/11 02:42:25;;;;;;;;;11.00;9.00;;;;;;;;5089153;27;47292;-72
2022/04/11 02:44:51;;;;;;;;;12.33;10.00;;;;;;;;5084869;27;45374;-72
2022/04/11 02:47:16;;;;;;;;;11.67;11.00;;;;;;;;5084719;27;45270;-72
2022/04/11 02:49:42;;;;;;;;;8.67;8.67;;;;;;;;5063038;27;45462;-72
2022/04/11 02:52:07;;;;;;;;;15.33;10.33;;;;;;;;5087951;27;46383;-72
2022/04/11 02:54:32;;;;;;;;;11.00;10.67;;;;;;;;5098572;27;45212;-72
2022/04/11 02:56:57;;;;;;;;;20.33;11.67;;;;;;;;5100818;27;45421;-72
2022/04/11 02:59:23;;;;;;;;;14.67;12.67;;;;;;;;5100747;27;45418;-72
2022/04/11 03:01:48;;;;;;;;;10.00;9.33;;;;;;;;5100554;27;45549;-72
2022/04/11 03:04:13;;;;;;;;;12.67;10.00;;;;;;;;5100589;27;45438;-73
2022/04/11 03:06:38;;;;;;;;;13.33;10.00;;;;;;;;5097997;27;45489;-72
2022/04/11 03:09:04;;;;;;;;;12.00;11.00;;;;;;;;5100571;27;45343;-72
2022/04/11 03:11:29;;;;;;;;;17.00;12.00;;;;;;;;5100317;27;45316;-72
2022/04/11 03:13:54;;;;;;;;;11.00;9.00;;;;;;;;5100418;27;45429;-73
2022/04/11 03:16:19;;;;;;;;;12.33;12.33;;;;;;;;5100637;27;45281;-72
2022/04/11 03:18:44;;;;;;;;;10.67;9.00;;;;;;;;5094339;27;45411;-72
2022/04/11 03:21:10;;;;;;;;;15.00;13.33;;;;;;;;5083505;27;45288;-72
2022/04/11 03:23:35;;;;;;;;;13.67;10.00;;;;;;;;5082946;27;45390;-72
2022/04/11 03:26:00;;;;;;;;;10.00;9.67;;;;;;;;5100222;27;45361;-72
2022/04/11 03:28:26;;;;;;;;;13.00;10.67;;;;;;;;5100469;27;45445;-72
2022/04/11 03:30:51;;;;;;;;;10.00;10.00;;;;;;;;5100101;27;46579;-73
2022/04/11 03:33:16;;;;;;;;;13.33;11.67;;;;;;;;5100132;27;45149;-72
2022/04/11 03:35:41;;;;;;;;;10.33;9.00;;;;;;;;5091243;27;45364;-72
2022/04/11 03:38:07;;;;;;;;;10.33;10.33;;;;;;;;5100576;27;45547;-72
2022/04/11 03:40:32;;;;;;;;;16.33;13.00;;;;;;;;5099720;27;45283;-72
2022/04/11 03:42:57;;;;;;;;;12.67;11.33;;;;;;;;5092407;27;45734;-72
2022/04/11 03:45:22;;;;;;;;;11.00;11.00;;;;;;;;5079285;27;45332;-72
2022/04/11 03:47:47;;;;;;;;;13.67;12.00;;;;;;;;5079106;28;45590;-72
2022/04/11 03:50:13;;;;;;;;;13.33;10.00;;;;;;;;5088224;27;46444;-72
2022/04/11 03:52:38;;;;;;;;;12.00;10.00;;;;;;;;5099812;27;45369;-73
2022/04/11 03:55:04;;;;;;;;;10.00;10.00;;;;;;;;5089669;27;45430;-72
2022/04/11 03:57:30;;;;;;;;;10.33;9.67;;;;;;;;5098934;27;45470;-72
2022/04/11 03:59:56;;;;;;;;;13.67;11.00;;;;;;;;5099515;27;45327;-72
2022/04/11 04:02:21;;;;;;;;;8.00;8.00;;;;;;;;5090599;27;45408;-72
2022/04/11 04:04:46;;;;;;;;;13.67;11.00;;;;;;;;5086039;27;46476;-73
2022/04/11 04:07:12;;;;;;;;;10.00;10.00;;;;;;;;5096062;27;45892;-73
2022/04/11 04:09:38;;;;;;;;;11.00;11.00;;;;;;;;5099751;27;47319;-72
2022/04/11 04:12:03;;;;;;;;;10.33;9.67;;;;;;;;5092308;27;45203;-72
2022/04/11 04:14:29;;;;;;;;;14.00;10.00;;;;;;;;5082603;27;45499;-72
2022/04/11 04:16:54;;;;;;;;;11.67;10.00;;;;;;;;5093867;27;45281;-73
2022/04/11 04:19:19;;;;;;;;;7.67;7.67;;;;;;;;5088034;27;45557;-72
2022/04/11 04:21:44;;;;;;;;;13.33;10.00;;;;;;;;5079334;28;45249;-73
2022/04/11 04:24:10;;;;;;;;;9.33;9.33;;;;;;;;5087179;27;45357;-73
2022/04/11 04:26:35;;;;;;;;;12.33;11.00;;;;;;;;5099599;27;45391;-73
2022/04/11 04:29:00;;;;;;;;;14.00;13.00;;;;;;;;5097481;27;46260;-72
2022/04/11 04:31:25;;;;;;;;;7.33;7.33;;;;;;;;5097323;27;45363;-73
2022/04/11 04:33:50;;;;;;;;;12.67;12.33;;;;;;;;5099592;27;45371;-72
2022/04/11 04:36:16;;;;;;;;;10.67;10.67;;;;;;;;5091701;27;45424;-73
2022/04/11 04:38:41;;;;;;;;;14.00;9.33;;;;;;;;5078572;28;45463;-73
2022/04/11 04:41:06;;;;;;;;;9.67;9.00;;;;;;;;5094661;27;45405;-73
2022/04/11 04:43:31;;;;;;;;;14.00;10.67;;;;;;;;5098954;27;45306;-73
2022/04/11 04:45:57;;;;;;;;;13.33;10.00;;;;;;;;5102001;27;46019;-73
2022/04/11 04:48:22;;;;;;;;;11.67;9.33;;;;;;;;5098964;27;46445;-73
2022/04/11 04:50:47;;;;;;;;;9.33;7.33;;;;;;;;5098949;27;45690;-73
2022/04/11 04:53:12;;;;;;;;;11.00;8.00;;;;;;;;5098784;27;45546;-72
2022/04/11 04:55:38;;;;;;;;;9.67;9.67;;;;;;;;5098896;27;45459;-73
2022/04/11 04:58:04;;;;;;;;;9.00;9.00;;;;;;;;5098999;27;46169;-73
2022/04/11 05:00:29;;;;;;;;;13.00;9.00;;;;;;;;5094358;27;45450;-73
2022/04/11 05:02:54;;;;;;;;;13.00;10.00;;;;;;;;5098702;27;45346;-73
2022/04/11 05:05:20;;;;;;;;;12.33;10.00;;;;;;;;5098765;27;45410;-73
2022/04/11 05:07:45;;;;;;;;;8.33;8.33;;;;;;;;5098573;27;46553;-73
2022/04/11 05:10:10;;;;;;;;;10.00;10.00;;;;;;;;5098514;27;45306;-73
2022/04/11 05:12:40;;;;;;;;;10.67;9.00;;;;;;;;5092986;27;45320;-73
2022/04/11 05:15:05;;;;;;;;;9.67;8.00;;;;;;;;5094364;27;45249;-73
2022/04/11 05:17:30;;;;;;;;;10.00;9.67;;;;;;;;5097008;27;46662;-73
2022/04/11 05:19:56;;;;;;;;;9.00;8.00;;;;;;;;5079976;27;45638;-75
2022/04/11 05:22:21;;;;;;;;;9.00;8.00;;;;;;;;5087829;27;45325;-71
2022/04/11 05:24:46;;;;;;;;;9.00;9.00;;;;;;;;5098623;27;45318;-71
2022/04/11 05:27:11;;;;;;;;;9.00;8.00;;;;;;;;5081577;27;45445;-71
2022/04/11 05:29:36;;;;;;;;;9.67;9.67;;;;;;;;5064404;27;45692;-70
2022/04/11 05:32:02;;;;;;;;;13.67;8.67;;;;;;;;5088227;27;45379;-70
2022/04/11 05:34:27;;;;;;;;;8.00;8.00;;;;;;;;5098461;27;45236;-70
2022/04/11 05:36:52;;;;;;;;;9.00;9.00;;;;;;;;5097798;27;45456;-70
2022/04/11 05:39:17;;;;;;;;;11.33;9.00;;;;;;;;5098036;27;45298;-70
2022/04/11 05:41:43;;;;;;;;;8.33;7.67;;;;;;;;5072189;27;45721;-71
2022/04/11 05:44:08;;;;;;;;;15.67;9.00;;;;;;;;5097264;27;45725;-70
2022/04/11 05:46:33;;;;;;;;;5.00;3.67;;;;;;;;5084237;27;46135;-71
2022/04/11 05:48:58;;;;;;;;;13.67;9.00;;;;;;;;5092436;27;45468;-71
2022/04/11 05:51:25;;;;;;;;;11.33;9.00;;;;;;;;5097692;27;45272;-72
2022/04/11 05:53:50;;;;;;;;;10.00;7.00;;;;;;;;5070925;27;45480;-71
2022/04/11 05:56:16;;;;;;;;;10.00;9.33;;;;;;;;5073876;27;46471;-71
2022/04/11 05:58:41;;;;;;;;;7.00;7.00;;;;;;;;5089421;27;45467;-71
2022/04/11 06:01:06;;;;;;;;;12.67;8.00;;;;;;;;5088378;27;45631;-71
2022/04/11 06:03:31;;;;;;;;;9.33;9.00;;;;;;;;5080132;27;46551;-72
2022/04/11 06:05:56;;;;;;;;;10.00;9.00;;;;;;;;5097232;27;46062;-73
2022/04/11 06:08:22;;;;;;;;;8.00;7.67;;;;;;;;5079060;27;45454;-71
2022/04/11 06:10:47;;;;;;;;;10.00;9.00;;;;;;;;5097270;27;45453;-71
2022/04/11 06:13:12;;;;;;;;;9.00;7.67;;;;;;;;5097603;27;45374;-69
2022/04/11 06:15:37;;;;;;;;;7.00;5.00;;;;;;;;5093982;27;46347;-69
2022/04/11 06:18:03;;;;;;;;;8.00;8.00;;;;;;;;5096741;27;45409;-73
2022/04/11 06:20:28;;;;;;;;;12.67;8.00;;;;;;;;5083836;27;45282;-73
2022/04/11 06:22:53;;;;;;;;;10.00;7.67;;;;;;;;5077475;28;45403;-73
2022/04/11 06:25:18;;;;;;;;;8.67;7.67;;;;;;;;5094622;27;45509;-74
2022/04/11 06:27:43;;;;;;;;;11.67;8.00;;;;;;;;5097807;27;45300;-74
2022/04/11 06:30:09;;;;;;;;;6.00;6.00;;;;;;;;5101094;27;45434;-73
2022/04/11 06:32:34;;;;;;;;;9.67;9.00;;;;;;;;5101029;27;45321;-74
2022/04/11 06:35:00;;;;;;;;;7.67;7.33;;;;;;;;5080023;27;47360;-73
2022/04/11 06:37:25;;;;;;;;;12.33;8.00;;;;;;;;5099026;27;45363;-73
2022/04/11 06:39:51;;;;;;;;;9.67;7.33;;;;;;;;5100857;27;45388;-73
2022/04/11 06:42:16;;;;;;;;;9.00;7.00;;;;;;;;5099661;27;45796;-73
2022/04/11 06:44:41;;;;;;;;;9.33;7.00;;;;;;;;5100585;27;46519;-72
2022/04/11 06:47:08;;;;;;;;;9.00;5.00;;;;;;;;5100712;27;45338;-72
2022/04/11 06:49:33;;;;;;;;;9.33;5.33;;;;;;;;5100464;27;45403;-72
2022/04/11 06:51:59;;;;;;;;;11.00;7.33;;;;;;;;5089314;27;45342;-73
2022/04/11 06:54:24;;;;;;;;;8.00;8.00;;;;;;;;5100163;27;47188;-72
2022/04/11 06:56:49;;;;;;;;;9.00;6.00;;;;;;;;5099951;27;45530;-71
2022/04/11 06:59:15;;;;;;;;;9.00;7.33;;;;;;;;5097101;27;45415;-72
2022/04/11 07:01:40;;;;;;;;;10.33;8.33;;;;;;;;5086242;27;45662;-71
2022/04/11 07:04:05;;;;;;;;;3.00;3.00;;;;;;;;5084112;27;46170;-72
2022/04/11 07:06:31;;;;;;;;;9.33;8.33;;;;;;;;5079273;28;45520;-71
2022/04/11 07:08:56;;;;;;;;;7.00;6.33;;;;;;;;5094307;27;45240;-72
2022/04/11 07:11:21;;;;;;;;;7.00;6.00;;;;;;;;5085796;27;45916;-72
2022/04/11 07:13:46;;;;;;;;;6.67;6.00;;;;;;;;5084277;27;46138;-71
2022/04/11 07:16:11;;;;;;;;;8.00;5.00;;;;;;;;5090578;27;45374;-70
2022/04/11 07:18:37;;;;;;;;;7.33;6.00;;;;;;;;5086442;27;45873;-70
2022/04/11 07:21:02;;;;;;;;;7.67;6.00;;;;;;;;5095180;27;45428;-70
2022/04/11 07:23:27;;;;;;;;;4.00;4.00;;;;;;;;5099646;27;45699;-70
2022/04/11 07:25:53;;;;;;;;;5.67;5.67;;;;;;;;5090368;27;45465;-71
2022/04/11 07:28:18;;;;;;;;;5.33;5.33;;;;;;;;5080671;27;45375;-70
2022/04/11 07:30:43;;;;;;;;;4.00;4.00;;;;;;;;5079389;28;45323;-71
2022/04/11 07:33:09;;;;;;;;;9.00;9.00;;;;;;;;5096146;27;46314;-73
2022/04/11 07:35:34;;;;;;;;;7.67;6.00;;;;;;;;5097742;27;46907;-73
2022/04/11 07:38:01;;;;;;;;;6.67;6.67;;;;;;;;5099820;27;45354;-70
2022/04/11 07:40:27;;;;;;;;;7.33;7.33;;;;;;;;5091439;27;45545;-72
2022/04/11 07:42:53;;;;;;;;;4.67;4.67;;;;;;;;5099497;27;46059;-73
2022/04/11 07:45:19;;;;;;;;;7.00;7.00;;;;;;;;5097822;27;45503;-72
2022/04/11 07:47:44;;;;;;;;;6.00;6.00;;;;;;;;5099842;27;45426;-72
2022/04/11 07:50:09;;;;;;;;;6.67;5.00;;;;;;;;5099988;27;45458;-73
2022/04/11 07:52:38;;;;;;;;;8.00;6.67;;;;;;;;5092989;27;45536;-73
2022/04/11 07:55:03;;;;;;;;;7.00;6.33;;;;;;;;5086567;27;45732;-71
2022/04/11 07:57:28;;;;;;;;;9.00;7.67;;;;;;;;5081229;27;45286;-68
2022/04/11 07:59:54;;;;;;;;;6.00;6.00;;;;;;;;5099678;27;45348;-69
2022/04/11 08:02:23;;;;;;;;;7.67;7.67;;;;;;;;5099475;27;45656;-69
2022/04/11 08:04:48;;;;;;;;;6.33;6.33;;;;;;;;5084589;27;45349;-67
2022/04/11 08:07:13;;;;;;;;;6.33;6.33;;;;;;;;5095006;27;45473;-69
2022/04/11 08:09:38;;;;;;;;;7.33;5.00;;;;;;;;5095552;27;45323;-73
2022/04/11 08:12:04;;;;;;;;;12.33;6.00;;;;;;;;5081409;27;46428;-73
2022/04/11 08:14:30;;;;;;;;;6.33;4.00;;;;;;;;5090313;27;45291;-72
2022/04/11 08:16:59;;;;;;;;;7.00;5.67;;;;;;;;5099522;27;45319;-72
2022/04/11 08:19:25;;;;;;;;;6.00;6.00;;;;;;;;5092339;27;45316;-72
2022/04/11 08:21:50;;;;;;;;;6.67;6.00;;;;;;;;5108489;27;45884;-72
2022/04/11 08:24:15;;;;;;;;;10.33;6.33;;;;;;;;5089540;27;45347;-70
2022/04/11 08:26:40;;;;;;;;;4.33;4.33;;;;;;;;5081146;27;45619;-72
2022/04/11 08:29:06;;;;;;;;;9.33;6.67;;;;;;;;5091748;27;45265;-71
2022/04/11 08:31:31;;;;;;;;;7.67;7.00;;;;;;;;5082595;27;47514;-71
2022/04/11 08:33:56;;;;;;;;;8.33;6.00;;;;;;;;5089867;27;45520;-71
2022/04/11 08:36:21;;;;;;;;;6.00;6.00;;;;;;;;5082687;27;45449;-72
2022/04/11 08:38:47;;;;;;;;;4.00;4.00;;;;;;;;5082130;27;45400;-71
2022/04/11 08:41:15;;;;;;;;;5.00;5.00;;;;;;;;5082136;27;45372;-71
2022/04/11 08:43:41;;;;;;;;;8.00;8.00;;;;;;;;5085185;27;45358;-71
2022/04/11 08:46:06;;;;;;;;;5.67;5.33;;;;;;;;5093880;27;45423;-71
2022/04/11 08:48:31;;;;;;;;;7.67;4.33;;;;;;;;5098815;27;45351;-71
2022/04/11 08:50:57;;;;;;;;;5.33;5.33;;;;;;;;5084454;27;46385;-71
2022/04/11 08:53:22;;;;;;;;;5.33;5.33;;;;;;;;5079723;27;45274;-71
2022/04/11 08:55:50;;;;;;;;;4.00;4.00;;;;;;;;5081725;27;45469;-71
2022/04/11 08:58:16;;;;;;;;;8.33;6.67;;;;;;;;5090195;27;45348;-71
2022/04/11 09:00:41;;;;;;;;;5.00;5.00;;;;;;;;5090440;27;46332;-72
2022/04/11 09:03:07;;;;;;;;;5.67;4.00;;;;;;;;5068531;27;45411;-71
2022/04/11 09:05:34;;;;;;;;;3.33;3.33;;;;;;;;5098587;27;45253;-71
2022/04/11 09:07:59;;;;;;;;;7.00;3.00;;;;;;;;5090906;27;45402;-70
2022/04/11 09:10:25;;;;;;;;;5.00;3.67;;;;;;;;5098496;27;45574;-71
2022/04/11 09:13:01;;;;;;;;;6.33;4.00;;;;;;;;5089622;27;45477;-72
2022/04/11 09:15:27;;;;;;;;;4.00;2.00;;;;;;;;5091867;27;45465;-72
2022/04/11 09:17:54;;;;;;;;;4.00;3.67;;;;;;;;5078845;27;46721;-72
2022/04/11 09:20:29;;;;;;;;;4.00;4.00;;;;;;;;5077249;28;47343;-72
2022/04/11 09:22:54;;;;;;;;;3.67;2.67;;;;;;;;5070232;28;45520;-71
2022/04/11 09:25:21;;;;;;;;;3.00;3.00;;;;;;;;5075645;27;45452;-69
2022/04/11 09:27:47;;;;;;;;;3.00;2.00;;;;;;;;5076865;27;45726;-71
2022/04/11 09:30:18;;;;;;;;;6.67;4.00;;;;;;;;5073783;28;46393;-71
2022/04/11 09:32:55;;;;;;;;;4.00;4.00;;;;;;;;5073869;28;45761;-70
2022/04/11 09:35:22;;;;;;;;;4.00;4.00;;;;;;;;5073192;27;46483;-70
2022/04/11 09:37:47;;;;;;;;;5.00;3.67;;;;;;;;5088723;27;45482;-70
2022/04/11 09:40:20;;;;;;;;;4.00;2.00;;;;;;;;5081871;27;45458;-70
2022/04/11 09:42:45;;;;;;;;;4.67;3.00;;;;;;;;5075968;28;45566;-70
2022/04/11 09:45:16;;;;;;;;;3.00;3.00;;;;;;;;5075987;28;45684;-71
2022/04/11 09:47:58;;;;;;;;;2.67;2.67;;;;;;;;5077484;28;45340;-69
2022/04/11 09:50:23;;;;;;;;;2.00;2.00;;;;;;;;5076265;28;46603;-68
2022/04/11 09:52:48;;;;;;;;;4.33;2.67;;;;;;;;5076019;28;45481;-69
2022/04/11 09:55:13;;;;;;;;;2.67;2.67;;;;;;;;5076429;28;45337;-69
2022/04/11 09:57:39;;;;;;;;;2.33;2.33;;;;;;;;5077196;28;45495;-69
2022/04/11 10:00:05;;;;;;;;;5.00;2.00;;;;;;;;5076135;28;46583;-69
2022/04/11 10:02:30;;;;;;;;;3.33;2.67;;;;;;;;5083120;27;45600;-69
2022/04/11 10:04:57;;;;;;;;;2.33;2.33;;;;;;;;5088011;27;45329;-70
2022/04/11 10:07:22;;;;;;;;;2.67;2.67;;;;;;;;5082979;27;45511;-69
2022/04/11 10:09:48;;;;;;;;;3.00;2.00;;;;;;;;5096563;27;45498;-69
2022/04/11 10:12:14;;;;;;;;;3.00;3.00;;;;;;;;5097249;27;45371;-68
2022/04/11 10:14:40;;;;;;;;;3.33;3.33;;;;;;;;5097383;27;45432;-69
2022/04/11 10:17:06;;;;;;;;;3.00;3.00;;;;;;;;5097328;27;45461;-68
2022/04/11 10:19:33;;;;;;;;;2.33;2.33;;;;;;;;5093094;27;46018;-68
2022/04/11 10:22:07;;;;;;;;;4.00;4.00;;;;;;;;5085463;27;45576;-69
2022/04/11 10:24:33;;;;;;;;;3.33;3.00;;;;;;;;5076464;27;45309;-69
2022/04/11 10:27:14;;;;;;;;;5.00;3.00;;;;;;;;5077025;28;45419;-69
2022/04/11 10:29:39;;;;;;;;;3.67;3.00;;;;;;;;5076328;28;47402;-70
2022/04/11 10:32:07;;;;;;;;;3.67;2.00;;;;;;;;5076438;28;45809;-70
2022/04/11 10:34:45;;;;;;;;;3.00;3.00;;;;;;;;5076708;28;45467;-70
2022/04/11 10:37:11;;;;;;;;;2.67;2.33;;;;;;;;5076980;28;45479;-71
2022/04/11 10:39:37;;;;;;;;;4.00;2.00;;;;;;;;5080962;27;47051;-69
2022/04/11 10:42:05;;;;;;;;;3.67;3.67;;;;;;;;5088858;27;46339;-70
2022/04/11 10:44:35;;;;;;;;;2.00;2.00;;;;;;;;5080047;27;45540;-70
2022/04/11 10:47:12;;;;;;;;;2.33;2.33;;;;;;;;5084255;27;45629;-70
2022/04/11 10:49:56;;;;;;;;;4.00;3.00;;;;;;;;5076887;27;46164;-70
2022/04/11 10:52:28;;;;;;;;;3.00;3.00;;;;;;;;5075646;28;45274;-70
2022/04/11 10:54:54;;;;;;;;;5.00;3.00;;;;;;;;5079204;27;45411;-70
2022/04/11 10:57:38;;;;;;;;;4.00;2.00;;;;;;;;5095959;27;45592;-70
2022/04/11 11:00:06;;;;;;;;;2.00;2.00;;;;;;;;5095691;27;45965;-71
2022/04/11 11:02:56;;;;;;;;;3.00;3.00;;;;;;;;5096634;27;45427;-70
2022/04/11 11:05:22;;;;;;;;;4.00;3.00;;;;;;;;5083496;27;45381;-70
2022/04/11 11:07:47;;;;;;;;;3.00;3.00;;;;;;;;5076483;28;45348;-71
2022/04/11 11:10:15;;;;;;;;;4.67;3.33;;;;;;;;5083538;27;45542;-70
2022/04/11 11:12:40;;;;;;;;;3.00;3.00;;;;;;;;5076290;28;45258;-70
2022/04/11 11:15:24;;;;;;;;;8.00;3.33;;;;;;;;5076726;27;45408;-71
2022/04/11 11:18:07;;;;;;;;;4.00;4.00;;;;;;;;5080122;27;45530;-70
2022/04/11 11:20:47;;;;;;;;;4.00;3.00;;;;;;;;5067897;28;45517;-69
2022/04/11 11:23:15;;;;;;;;;2.67;2.67;;;;;;;;5078035;27;45603;-70
2022/04/11 11:25:40;;;;;;;;;2.33;2.00;;;;;;;;5079493;27;46075;-74
2022/04/11 11:28:05;;;;;;;;;5.67;3.00;;;;;;;;5093345;27;45332;-69
2022/04/11 11:30:32;;;;;;;;;2.00;2.00;;;;;;;;5098597;27;45622;-68
2022/04/11 11:32:59;;;;;;;;;2.33;2.33;;;;;;;;5090960;27;45407;-72
2022/04/11 11:35:25;;;;;;;;;2.33;2.33;;;;;;;;5098125;27;45525;-70
2022/04/11 11:37:50;;;;;;;;;3.00;3.00;;;;;;;;5082740;27;45407;-72
2022/04/11 11:40:18;;;;;;;;;2.00;2.00;;;;;;;;5086746;27;45617;-71
2022/04/11 11:42:43;;;;;;;;;3.00;3.00;;;;;;;;5090230;27;45472;-71
2022/04/11 11:45:08;;;;;;;;;2.67;2.67;;;;;;;;5085423;27;45474;-72
2022/04/11 11:47:34;;;;;;;;;2.00;2.00;;;;;;;;5078296;27;45490;-71
2022/04/11 11:50:00;;;;;;;;;2.33;2.33;;;;;;;;5094795;27;47036;-71
2022/04/11 11:52:26;;;;;;;;;2.67;2.67;;;;;;;;5086978;27;45375;-71
2022/04/11 11:54:52;;;;;;;;;3.33;3.33;;;;;;;;5085647;27;45526;-71
2022/04/11 11:57:28;;;;;;;;;2.00;2.00;;;;;;;;5094818;27;45314;-71
2022/04/11 11:59:54;;;;;;;;;3.00;3.00;;;;;;;;5078333;28;45445;-70
2022/04/11 12:05:34;;;;;;;;;2.67;2.67;;;;;;;;5078990;28;45549;-71
2022/04/11 12:08:01;;;;;;;;;3.00;3.00;;;;;;;;4999818;28;45541;-71
2022/04/11 12:10:27;;;;;;;;;2.33;2.33;;;;;;;;5015662;28;47402;-72
2022/04/11 12:12:54;;;;;;;;;2.33;2.33;;;;;;;;5015297;28;45473;-71
2022/04/11 12:15:19;;;;;;;;;3.00;3.00;;;;;;;;5005863;28;45503;-72
2022/04/11 12:17:46;;;;;;;;;2.67;2.00;;;;;;;;5012145;28;45649;-73
2022/04/11 12:20:12;;;;;;;;;3.00;1.33;;;;;;;;5008219;28;46116;-73
2022/04/11 12:22:38;;;;;;;;;1.33;1.33;;;;;;;;5016150;28;45540;-73
2022/04/11 12:25:23;;;;;;;;;3.00;3.00;;;;;;;;5015643;28;45484;-73
2022/04/11 12:27:49;;;;;;;;;2.33;2.33;;;;;;;;5011748;28;45771;-73
2022/04/11 12:30:15;;;;;;;;;1.67;1.67;;;;;;;;5018082;28;47476;-72
2022/04/11 12:32:40;;;;;;;;;1.00;1.00;;;;;;;;5025694;28;45389;-73
2022/04/11 12:35:15;;;;;;;;;1.67;1.67;;;;;;;;4998089;28;45339;-72
2022/04/11 12:37:50;;;;;;;;;1.00;1.00;;;;;;;;4998021;28;45641;-72
2022/04/11 12:40:16;;;;;;;;;2.00;1.00;;;;;;;;5007651;28;46151;-73
2022/04/11 12:42:41;;;;;;;;;3.00;1.00;;;;;;;;5016019;28;45478;-72
2022/04/11 12:45:08;;;;;;;;;1.00;1.00;;;;;;;;5066221;28;45441;-74
2022/04/11 12:47:53;;;;;;;;;1.67;1.67;;;;;;;;5078918;28;45533;-74
2022/04/11 12:50:22;;;;;;;;;1.00;1.00;;;;;;;;5078373;27;46492;-73
2022/04/11 12:52:47;;;;;;;;;1.00;1.00;;;;;;;;5078095;28;45348;-71
2022/04/11 12:55:14;;;;;;;;;0.00;0.00;;;;;;;;5078598;28;45451;-72
2022/04/11 12:57:40;;;;;;;;;2.67;1.00;;;;;;;;5078791;28;45351;-72
2022/04/11 13:00:18;;;;;;;;;4.00;1.00;;;;;;;;5078095;28;46160;-72
2022/04/11 13:02:44;;;;;;;;;0.67;0.67;;;;;;;;5078597;28;45447;-74
2022/04/11 13:05:13;;;;;;;;;0.00;0.00;;;;;;;;5078550;28;45550;-73
2022/04/11 13:07:39;;;;;;;;;1.00;1.00;;;;;;;;5078540;28;45456;-74
2022/04/11 13:10:05;;;;;;;;;2.33;1.00;;;;;;;;5078063;28;46938;-74
2022/04/11 13:12:30;;;;;;;;;2.00;2.00;;;;;;;;5078312;28;45367;-74
2022/04/11 13:14:55;;;;;;;;;0.00;0.00;;;;;;;;5078595;28;45356;-73
2022/04/11 13:20:05;;;;;;;;;1.00;1.00;;;;;;;;5078043;28;45316;-73
2022/04/11 13:22:30;;;;;;;;;0.67;0.00;;;;;;;;5078435;28;45328;-73
2022/04/11 13:24:55;;;;;;;;;1.00;1.00;;;;;;;;5078283;28;45386;-71
2022/04/11 13:27:21;;;;;;;;;1.67;1.67;;;;;;;;5078199;28;45354;-71
2022/04/11 13:29:47;;;;;;;;;2.00;2.00;;;;;;;;5077759;28;46359;-71
2022/04/11 13:32:12;;;;;;;;;2.00;2.00;;;;;;;;5077964;28;45372;-71
2022/04/11 13:34:38;;;;;;;;;3.00;2.00;;;;;;;;5078502;28;45384;-73
2022/04/11 13:37:04;;;;;;;;;1.67;0.00;;;;;;;;5077485;28;45573;-71
2022/04/11 13:39:29;;;;;;;;;3.00;1.00;;;;;;;;5077307;28;45403;-70
2022/04/11 13:41:54;;;;;;;;;2.00;2.00;;;;;;;;5077929;28;45392;-71
2022/04/11 13:44:20;;;;;;;;;4.00;1.67;;;;;;;;5078007;28;45346;-70
2022/04/11 13:46:46;;;;;;;;;3.00;3.00;;;;;;;;5078130;28;45313;-71
2022/04/11 13:49:12;;;;;;;;;2.00;2.00;;;;;;;;5077711;28;47189;-71
2022/04/11 13:51:38;;;;;;;;;2.00;2.00;;;;;;;;5077515;28;45285;-68
2022/04/11 13:54:03;;;;;;;;;1.33;1.33;;;;;;;;5077635;28;45451;-68
2022/04/11 13:56:29;;;;;;;;;1.33;1.33;;;;;;;;5077832;28;45412;-68
2022/04/11 13:58:54;;;;;;;;;1.00;1.00;;;;;;;;5077778;28;46244;-68
2022/04/11 14:01:22;;;;;;;;;1.00;1.00;;;;;;;;5077080;28;45489;-69
2022/04/11 14:03:47;;;;;;;;;2.00;2.00;;;;;;;;5077790;28;45414;-69
2022/04/11 14:06:13;;;;;;;;;6.00;6.00;;;;;;;;5077778;28;45369;-69
2022/04/11 14:08:38;;;;;;;;;2.33;2.00;;;;;;;;5077384;28;46327;-69
2022/04/11 14:11:03;;;;;;;;;4.33;3.00;;;;;;;;5077608;28;45356;-69
2022/04/11 14:13:30;;;;;;;;;2.00;2.00;;;;;;;;5077486;28;45357;-69
2022/04/11 14:15:55;;;;;;;;;2.00;2.00;;;;;;;;5077558;28;45693;-68
2022/04/11 14:18:21;;;;;;;;;2.00;1.33;;;;;;;;5077317;28;46497;-69
2022/04/11 14:20:46;;;;;;;;;4.00;2.33;;;;;;;;5077031;28;45210;-69
2022/04/11 14:23:12;;;;;;;;;3.00;2.00;;;;;;;;5077747;28;45267;-70
2022/04/11 14:25:37;;;;;;;;;4.00;3.00;;;;;;;;5077637;28;45418;-70
2022/04/11 14:28:03;;;;;;;;;2.00;2.00;;;;;;;;5076950;28;46567;-69
2022/04/11 14:30:28;;;;;;;;;2.67;2.67;;;;;;;;5077277;28;45318;-69
2022/04/11 14:32:53;;;;;;;;;7.00;7.00;;;;;;;;5076773;28;45235;-70
2022/04/11 14:35:18;;;;;;;;;4.33;4.33;;;;;;;;5077409;28;45281;-69